createdAt,value
2022-09-27T00:02:23.679Z,0.30
2022-09-27T00:04:50.098Z,0.63
2022-09-27T00:07:16.554Z,0.90
2022-09-27T00:09:42.981Z,1.00
2022-09-27T00:12:10.067Z,0.53
2022-09-27T00:14:36.534Z,1.43
2022-09-27T00:17:03.036Z,1.17
2022-09-27T00:19:29.431Z,1.43
2022-09-27T00:21:56.401Z,0.73
2022-09-27T00:24:23.152Z,0.70
2022-09-27T00:26:50.202Z,0.70
2022-09-27T00:29:18.595Z,0.40
2022-09-27T00:31:45.800Z,1.23
2022-09-27T00:34:21.633Z,2.87
2022-09-27T00:36:48.890Z,2.03
2022-09-27T00:39:15.764Z,0.77
2022-09-27T00:41:42.644Z,0.90
2022-09-27T00:44:28.370Z,1.70
2022-09-27T00:47:08.673Z,0.97
2022-09-27T00:49:43.282Z,2.07
2022-09-27T00:52:21.378Z,1.10
2022-09-27T00:54:51.974Z,1.87
2022-09-27T00:57:19.733Z,2.13
2022-09-27T00:59:51.043Z,4.10
2022-09-27T01:02:18.050Z,4.30
2022-09-27T01:04:45.653Z,2.83
2022-09-27T01:07:12.021Z,3.93
2022-09-27T01:09:39.513Z,3.00
2022-09-27T01:12:32.494Z,3.30
2022-09-27T01:15:20.837Z,1.47
2022-09-27T01:17:50.183Z,3.87
2022-09-27T01:21:00.623Z,2.97
2022-09-27T01:24:02.862Z,2.13
2022-09-27T01:26:38.514Z,3.70
2022-09-27T01:29:34.113Z,4.00
2022-09-27T01:32:32.826Z,3.20
2022-09-27T01:35:15.850Z,4.60
2022-09-27T01:38:07.016Z,7.73
2022-09-27T01:40:45.196Z,2.87
2022-09-27T01:43:37.428Z,4.30
2022-09-27T01:46:36.468Z,4.23
2022-09-27T01:49:37.915Z,2.67
2022-09-27T01:52:08.130Z,3.97
2022-09-27T01:54:40.563Z,2.63
2022-09-27T01:57:39.273Z,5.23
2022-09-27T02:00:12.077Z,4.53
2022-09-27T02:02:48.143Z,3.47
2022-09-27T02:05:26.991Z,6.30
2022-09-27T02:08:02.208Z,3.40
2022-09-27T02:10:39.497Z,3.33
2022-09-27T02:13:26.104Z,3.90
2022-09-27T02:16:05.659Z,2.67
2022-09-27T02:18:55.380Z,4.10
2022-09-27T02:21:29.761Z,4.53
2022-09-27T02:24:02.646Z,5.53
2022-09-27T02:26:45.976Z,5.90
2022-09-27T02:29:24.541Z,3.77
2022-09-27T02:31:53.116Z,3.80
2022-09-27T02:34:24.096Z,5.87
2022-09-27T02:36:53.305Z,3.07
2022-09-27T02:39:21.133Z,4.53
2022-09-27T02:41:58.393Z,6.70
2022-09-27T02:44:27.253Z,4.40
2022-09-27T02:47:16.967Z,2.90
2022-09-27T02:50:03.358Z,6.37
2022-09-27T02:53:09.525Z,4.97
2022-09-27T02:56:00.057Z,4.57
2022-09-27T02:59:11.345Z,4.40
2022-09-27T03:02:24.389Z,3.23
2022-09-27T03:05:30.544Z,5.10
2022-09-27T03:07:57.354Z,3.93
2022-09-27T03:10:29.340Z,4.47
2022-09-27T03:12:58.538Z,3.10
2022-09-27T03:15:24.955Z,3.13
2022-09-27T03:18:11.674Z,2.43
2022-09-27T03:20:56.762Z,2.77
2022-09-27T03:23:25.694Z,2.63
2022-09-27T03:25:52.107Z,3.47
2022-09-27T03:28:19.293Z,1.97
2022-09-27T03:30:47.453Z,2.57
2022-09-27T03:33:33.471Z,2.63
2022-09-27T03:36:05.520Z,2.83
2022-09-27T03:38:31.970Z,3.67
2022-09-27T03:40:59.018Z,2.00
2022-09-27T03:43:25.719Z,3.07
2022-09-27T03:45:56.594Z,2.53
2022-09-27T03:48:27.763Z,1.87
2022-09-27T03:50:54.611Z,1.83
2022-09-27T03:53:21.203Z,1.23
2022-09-27T03:55:47.961Z,2.73
2022-09-27T03:58:14.698Z,2.20
2022-09-27T04:00:41.296Z,2.67
2022-09-27T04:03:07.828Z,4.40
2022-09-27T04:05:53.808Z,2.70
2022-09-27T04:08:27.943Z,3.33
2022-09-27T04:10:54.425Z,3.27
2022-09-27T04:13:21.076Z,1.83
2022-09-27T04:15:54.135Z,1.53
2022-09-27T04:18:43.769Z,2.17
2022-09-27T04:21:36.182Z,3.30
2022-09-27T04:24:05.186Z,2.60
2022-09-27T04:26:31.773Z,2.03
2022-09-27T04:29:02.465Z,3.07
2022-09-27T04:31:29.702Z,2.07
2022-09-27T04:34:18.146Z,2.00
2022-09-27T04:36:44.542Z,1.53
2022-09-27T04:39:16.303Z,2.53
2022-09-27T04:41:45.056Z,2.73
2022-09-27T04:44:11.842Z,1.63
2022-09-27T04:46:41.139Z,1.63
2022-09-27T04:49:07.640Z,2.53
2022-09-27T04:51:36.165Z,0.90
2022-09-27T04:54:03.846Z,2.23
2022-09-27T04:56:33.149Z,1.20
2022-09-27T04:59:01.279Z,2.00
2022-09-27T05:01:27.783Z,1.10
2022-09-27T05:04:12.909Z,2.40
2022-09-27T05:06:43.188Z,1.93
2022-09-27T05:09:18.147Z,1.63
2022-09-27T05:11:49.690Z,1.50
2022-09-27T05:14:16.202Z,2.97
2022-09-27T05:17:08.750Z,2.50
2022-09-27T05:20:14.053Z,2.73
2022-09-27T05:22:53.356Z,0.80
2022-09-27T05:25:19.779Z,3.53
2022-09-27T05:27:47.062Z,3.40
2022-09-27T05:30:13.715Z,2.90
2022-09-27T05:32:49.234Z,1.80
2022-09-27T05:35:45.750Z,1.10
2022-09-27T05:38:12.921Z,1.70
2022-09-27T05:40:44.294Z,1.53
2022-09-27T05:43:11.345Z,2.50
2022-09-27T05:45:38.079Z,1.70
2022-09-27T05:48:06.616Z,4.00
2022-09-27T05:50:39.201Z,1.67
2022-09-27T05:53:06.620Z,3.07
2022-09-27T05:55:33.061Z,1.97
2022-09-27T05:58:02.118Z,1.17
2022-09-27T06:00:51.420Z,2.10
2022-09-27T06:03:36.589Z,1.60
2022-09-27T06:06:15.474Z,0.87
2022-09-27T06:08:55.936Z,1.63
2022-09-27T06:11:26.297Z,5.00
2022-09-27T06:13:52.985Z,1.27
2022-09-27T06:16:19.762Z,2.00
2022-09-27T06:18:46.174Z,2.33
2022-09-27T06:21:13.453Z,1.43
2022-09-27T06:23:43.311Z,1.97
2022-09-27T06:26:16.404Z,1.80
2022-09-27T06:29:02.722Z,1.20
2022-09-27T06:31:31.100Z,2.03
2022-09-27T06:34:07.209Z,1.03
2022-09-27T06:36:34.015Z,1.07
2022-09-27T06:39:01.635Z,2.50
2022-09-27T06:41:44.163Z,1.20
2022-09-27T06:44:21.607Z,2.23
2022-09-27T06:47:27.085Z,1.67
2022-09-27T06:50:10.034Z,0.97
2022-09-27T06:52:37.304Z,1.00
2022-09-27T06:55:05.367Z,1.17
2022-09-27T06:57:52.204Z,2.03
2022-09-27T07:00:26.513Z,1.17
2022-09-27T07:03:23.979Z,0.83
2022-09-27T07:06:17.499Z,0.93
2022-09-27T07:08:53.090Z,0.70
2022-09-27T07:11:23.603Z,1.83
2022-09-27T07:13:51.753Z,1.27
2022-09-27T07:16:19.003Z,2.97
2022-09-27T07:18:48.362Z,1.87
2022-09-27T07:21:16.230Z,1.10
2022-09-27T07:23:42.777Z,1.60
2022-09-27T07:26:12.680Z,1.73
2022-09-27T07:28:41.548Z,0.83
2022-09-27T07:31:12.840Z,1.93
2022-09-27T07:33:43.193Z,3.37
2022-09-27T07:36:11.683Z,1.00
2022-09-27T07:38:41.302Z,1.23
2022-09-27T07:41:10.990Z,1.30
2022-09-27T07:43:37.422Z,2.13
2022-09-27T07:46:04.879Z,1.70
2022-09-27T07:48:43.166Z,1.83
2022-09-27T07:51:15.238Z,1.13
2022-09-27T07:53:44.583Z,1.00
2022-09-27T07:56:29.935Z,2.73
2022-09-27T07:58:57.177Z,2.93
2022-09-27T08:01:23.927Z,3.20
2022-09-27T08:03:50.740Z,3.40
2022-09-27T08:06:19.081Z,1.93
2022-09-27T08:08:47.348Z,1.90
2022-09-27T08:11:16.425Z,1.87
2022-09-27T08:13:45.670Z,2.53
2022-09-27T08:16:14.148Z,3.13
2022-09-27T08:19:07.213Z,1.47
2022-09-27T08:21:58.889Z,3.10
2022-09-27T08:24:30.544Z,3.50
2022-09-27T08:27:14.860Z,3.03
2022-09-27T08:29:57.568Z,2.27
2022-09-27T08:32:24.021Z,2.77
2022-09-27T08:34:51.593Z,3.17
2022-09-27T08:37:20.539Z,1.67
2022-09-27T08:39:48.306Z,1.93
2022-09-27T08:42:37.250Z,1.87
2022-09-27T08:45:14.686Z,3.57
2022-09-27T08:47:46.378Z,3.47
2022-09-27T08:50:23.674Z,3.20
2022-09-27T08:52:54.836Z,2.63
2022-09-27T08:55:25.513Z,1.87
2022-09-27T08:57:56.552Z,2.80
2022-09-27T09:00:24.749Z,3.87
2022-09-27T09:02:51.359Z,6.13
2022-09-27T09:05:30.248Z,2.63
2022-09-27T09:08:09.938Z,3.03
2022-09-27T09:11:07.971Z,4.17
2022-09-27T09:13:37.317Z,3.00
2022-09-27T09:16:22.702Z,3.20
2022-09-27T09:19:10.015Z,3.03
2022-09-27T09:22:16.846Z,2.47
2022-09-27T09:25:00.145Z,3.67
2022-09-27T09:27:43.626Z,3.43
2022-09-27T09:30:22.367Z,4.20
2022-09-27T09:33:26.922Z,5.17
2022-09-27T09:36:01.592Z,3.10
2022-09-27T09:38:41.457Z,3.53
2022-09-27T09:41:42.650Z,2.77
2022-09-27T09:44:15.455Z,2.77
2022-09-27T09:46:46.411Z,5.40
2022-09-27T09:49:35.800Z,2.93
2022-09-27T09:52:09.088Z,2.10
2022-09-27T09:54:53.489Z,2.67
2022-09-27T09:57:28.347Z,5.90
2022-09-27T10:00:01.216Z,2.33
2022-09-27T10:02:44.177Z,3.23
2022-09-27T10:05:18.311Z,2.73
2022-09-27T10:07:48.654Z,4.10
2022-09-27T10:10:17.838Z,2.73
2022-09-27T10:13:20.700Z,4.67
2022-09-27T10:16:04.147Z,2.90
2022-09-27T10:18:32.776Z,5.77
2022-09-27T10:21:04.082Z,5.47
2022-09-27T10:23:31.275Z,5.70
2022-09-27T10:26:09.027Z,4.43
2022-09-27T10:28:44.588Z,4.17
2022-09-27T10:31:19.365Z,4.10
2022-09-27T10:34:05.433Z,4.20
2022-09-27T10:36:40.297Z,3.57
2022-09-27T10:39:21.805Z,5.63
2022-09-27T10:41:48.322Z,5.87
2022-09-27T10:44:26.842Z,3.23
2022-09-27T10:47:09.813Z,2.63
2022-09-27T10:49:44.954Z,4.20
2022-09-27T10:52:36.030Z,0.87
2022-09-27T10:55:17.566Z,1.23
2022-09-27T10:57:49.937Z,2.13
2022-09-27T11:00:25.781Z,0.80
2022-09-27T11:02:58.608Z,1.17
2022-09-27T11:05:36.140Z,1.30
2022-09-27T11:08:27.310Z,1.67
2022-09-27T11:11:06.822Z,0.60
2022-09-27T11:13:36.079Z,1.67
2022-09-27T11:16:22.902Z,1.20
2022-09-27T11:19:15.531Z,1.53
2022-09-27T11:22:08.517Z,1.50
2022-09-27T11:24:54.747Z,1.30
2022-09-27T11:27:46.953Z,2.40
2022-09-27T11:30:17.974Z,5.40
2022-09-27T11:33:23.799Z,1.63
2022-09-27T11:36:13.807Z,1.80
2022-09-27T11:39:02.967Z,2.87
2022-09-27T11:41:48.418Z,3.37
2022-09-27T11:45:07.947Z,1.67
2022-09-27T11:47:48.718Z,2.43
2022-09-27T11:50:27.105Z,1.50
2022-09-27T11:52:57.870Z,1.20
2022-09-27T11:55:40.278Z,1.53
2022-09-27T11:58:21.607Z,5.87
2022-09-27T12:01:15.576Z,2.03
2022-09-27T12:04:05.589Z,4.30
2022-09-27T12:06:58.731Z,2.23
2022-09-27T12:09:34.689Z,1.03
2022-09-27T12:12:06.188Z,2.10
2022-09-27T12:14:50.645Z,2.13
2022-09-27T12:17:25.739Z,2.97
2022-09-27T12:19:58.437Z,2.00
2022-09-27T12:22:58.623Z,1.03
2022-09-27T12:25:41.210Z,1.40
2022-09-27T12:28:28.272Z,2.10
2022-09-27T12:31:27.435Z,6.43
2022-09-27T12:34:02.801Z,2.50
2022-09-27T12:36:38.291Z,1.63
2022-09-27T12:39:15.957Z,1.63
2022-09-27T12:41:53.268Z,3.13
2022-09-27T12:44:39.396Z,2.27
2022-09-27T12:47:13.047Z,2.00
2022-09-27T12:50:00.315Z,3.87
2022-09-27T12:52:35.146Z,1.90
2022-09-27T12:55:38.927Z,3.40
2022-09-27T12:58:15.694Z,1.50
2022-09-27T13:00:59.266Z,4.73
2022-09-27T13:03:54.465Z,1.47
2022-09-27T13:06:42.936Z,2.67
2022-09-27T13:09:40.081Z,1.33
2022-09-27T13:12:16.209Z,0.80
2022-09-27T13:15:07.667Z,2.70
2022-09-27T13:17:40.672Z,0.90
2022-09-27T13:20:28.094Z,0.57
2022-09-27T13:22:54.776Z,0.73
2022-09-27T13:25:55.809Z,2.53
2022-09-27T13:28:50.281Z,1.40
2022-09-27T13:31:53.807Z,1.60
2022-09-27T13:34:45.252Z,2.93
2022-09-27T13:37:45.489Z,1.83
2022-09-27T13:40:15.752Z,0.73
2022-09-27T13:43:35.546Z,1.43
2022-09-27T13:46:16.655Z,0.60
2022-09-27T13:49:27.355Z,0.40
2022-09-27T13:52:26.768Z,1.97
2022-09-27T13:55:37.246Z,0.77
2022-09-27T13:58:19.512Z,0.70
2022-09-27T14:00:53.382Z,1.67
2022-09-27T14:03:30.325Z,1.83
2022-09-27T14:06:15.535Z,2.40
2022-09-27T14:08:50.692Z,1.07
2022-09-27T14:11:28.110Z,1.13
2022-09-27T14:13:56.163Z,1.80
2022-09-27T14:16:31.601Z,1.97
2022-09-27T14:18:59.514Z,0.97
2022-09-27T14:21:39.956Z,1.10
2022-09-27T14:24:44.266Z,1.53
2022-09-27T14:27:27.427Z,1.80
2022-09-27T14:30:18.698Z,1.73
2022-09-27T14:32:58.430Z,1.07
2022-09-27T14:36:07.315Z,2.83
2022-09-27T14:38:39.154Z,2.47
2022-09-27T14:41:26.293Z,2.23
2022-09-27T14:43:53.697Z,1.00
2022-09-27T14:46:31.924Z,1.97
2022-09-27T14:48:59.651Z,0.73
2022-09-27T14:51:29.597Z,0.50
2022-09-27T14:54:00.993Z,1.10
2022-09-27T14:56:34.796Z,0.60
2022-09-27T14:59:16.958Z,0.70
2022-09-27T15:01:51.575Z,0.30
2022-09-27T15:04:20.178Z,1.87
2022-09-27T15:06:47.807Z,0.47
2022-09-27T15:09:16.758Z,0.73
2022-09-27T15:11:46.302Z,1.67
2022-09-27T15:14:17.339Z,0.27
2022-09-27T15:16:47.330Z,0.50
2022-09-27T15:19:19.341Z,0.83
2022-09-27T15:21:45.892Z,1.17
2022-09-27T15:24:44.490Z,1.47
2022-09-27T15:27:21.516Z,1.40
2022-09-27T15:29:57.007Z,1.50
2022-09-27T15:32:26.522Z,0.97
2022-09-27T15:34:54.533Z,0.70
2022-09-27T15:37:39.218Z,0.60
2022-09-27T15:40:47.127Z,0.97
2022-09-27T15:43:37.166Z,0.70
2022-09-27T15:46:24.033Z,1.43
2022-09-27T15:49:30.170Z,0.73
2022-09-27T15:51:59.388Z,1.40
2022-09-27T15:54:30.171Z,0.90
2022-09-27T15:57:02.085Z,0.77
2022-09-27T15:59:30.425Z,1.47
2022-09-27T16:02:07.595Z,2.57
2022-09-27T16:04:34.518Z,1.30
2022-09-27T16:07:04.661Z,2.10
2022-09-27T16:09:31.058Z,1.00
2022-09-27T16:11:57.538Z,2.60
2022-09-27T16:14:23.976Z,2.23
2022-09-27T16:16:58.726Z,2.40
2022-09-27T16:19:25.224Z,1.97
2022-09-27T16:21:51.600Z,6.47
2022-09-27T16:24:18.516Z,4.23
2022-09-27T16:26:44.905Z,5.70
2022-09-27T16:29:13.799Z,4.73
2022-09-27T16:31:41.241Z,2.80
2022-09-27T16:34:09.936Z,4.30
2022-09-27T16:36:36.419Z,3.87
2022-09-27T16:39:05.096Z,2.93
2022-09-27T16:41:33.203Z,7.33
2022-09-27T16:44:05.564Z,2.67
2022-09-27T16:46:34.560Z,4.77
2022-09-27T16:49:01.576Z,3.70
2022-09-27T16:51:47.040Z,2.30
2022-09-27T16:54:15.591Z,2.73
2022-09-27T16:56:42.321Z,2.53
2022-09-27T16:59:08.744Z,3.77
2022-09-27T17:01:35.440Z,4.27
2022-09-27T17:04:01.954Z,5.10
2022-09-27T17:06:32.002Z,2.63
2022-09-27T17:09:02.218Z,3.00
2022-09-27T17:11:29.426Z,3.73
2022-09-27T17:13:55.954Z,6.13
2022-09-27T17:16:24.123Z,6.30
2022-09-27T17:18:51.131Z,4.97
2022-09-27T17:21:17.541Z,4.00
2022-09-27T17:23:43.965Z,3.30
2022-09-27T17:26:21.688Z,3.03
2022-09-27T17:28:49.921Z,4.83
2022-09-27T17:31:18.686Z,3.80
2022-09-27T17:33:47.412Z,2.50
2022-09-27T17:36:18.329Z,2.50
2022-09-27T17:38:46.101Z,2.90
2022-09-27T17:41:15.495Z,4.77
2022-09-27T17:43:49.498Z,7.57
2022-09-27T17:46:18.312Z,6.47
2022-09-27T17:49:04.018Z,6.20
2022-09-27T17:51:31.459Z,7.63
2022-09-27T17:53:58.079Z,7.67
2022-09-27T17:56:24.725Z,8.47
2022-09-27T17:58:53.473Z,6.33
2022-09-27T18:01:21.892Z,7.50
2022-09-27T18:03:54.680Z,8.27
2022-09-27T18:06:21.917Z,8.73
2022-09-27T18:08:48.310Z,6.57
2022-09-27T18:11:18.031Z,7.67
2022-09-27T18:13:44.840Z,8.37
2022-09-27T18:16:17.305Z,7.53
2022-09-27T18:18:48.029Z,9.03
2022-09-27T18:21:22.336Z,5.73
2022-09-27T18:23:54.889Z,4.57
2022-09-27T18:26:24.273Z,5.00
2022-09-27T18:28:53.095Z,6.07
2022-09-27T18:31:21.517Z,3.60
2022-09-27T18:33:49.877Z,5.97
2022-09-27T18:36:21.308Z,3.77
2022-09-27T18:38:53.474Z,3.10
2022-09-27T18:41:21.148Z,7.33
2022-09-27T18:43:47.831Z,6.93
2022-09-27T18:46:37.404Z,9.90
2022-09-27T18:49:07.116Z,7.67
2022-09-27T18:51:37.129Z,7.63
2022-09-27T18:54:06.144Z,3.97
2022-09-27T18:56:38.931Z,6.20
2022-09-27T18:59:09.398Z,5.73
2022-09-27T19:01:39.618Z,5.87
2022-09-27T19:04:08.012Z,4.67
2022-09-27T19:06:35.159Z,3.57
2022-09-27T19:09:03.564Z,5.50
2022-09-27T19:11:31.496Z,4.27
2022-09-27T19:18:10.600Z,5.00
2022-09-27T19:20:37.520Z,3.80
2022-09-27T19:23:03.947Z,4.97
2022-09-27T19:25:30.351Z,3.83
2022-09-27T19:27:56.750Z,3.67
2022-09-27T19:30:23.327Z,5.63
2022-09-27T19:32:52.350Z,4.07
2022-09-27T19:35:18.734Z,2.40
2022-09-27T19:37:45.164Z,5.77
2022-09-27T19:40:11.636Z,6.97
2022-09-27T19:42:38.334Z,4.87
2022-09-27T19:45:10.642Z,4.57
2022-09-27T19:47:37.981Z,7.83
2022-09-27T19:50:04.548Z,6.53
2022-09-27T19:52:31.526Z,4.33
2022-09-27T19:54:58.362Z,3.13
2022-09-27T19:57:25.456Z,2.90
2022-09-27T19:59:51.818Z,3.47
2022-09-27T20:02:18.677Z,3.33
2022-09-27T20:04:45.367Z,2.93
2022-09-27T20:07:11.781Z,4.20
2022-09-27T20:09:38.140Z,3.53
2022-09-27T20:12:05.200Z,4.10
2022-09-27T20:14:32.192Z,2.33
2022-09-27T20:16:58.550Z,2.60
2022-09-27T20:19:24.917Z,5.23
2022-09-27T20:21:51.757Z,8.07
2022-09-27T20:24:18.190Z,4.73
2022-09-27T20:26:44.846Z,2.60
2022-09-27T20:29:11.289Z,4.37
2022-09-27T20:31:57.018Z,5.17
2022-09-27T20:34:29.842Z,6.20
2022-09-27T20:36:56.311Z,4.20
2022-09-27T20:39:23.576Z,5.03
2022-09-27T20:41:50.713Z,5.33
2022-09-27T20:44:19.764Z,7.63
2022-09-27T20:46:47.496Z,6.33
2022-09-27T20:49:16.561Z,5.63
2022-09-27T20:51:44.958Z,2.73
2022-09-27T20:54:12.607Z,4.83
2022-09-27T20:56:41.551Z,3.07
2022-09-27T20:59:22.469Z,3.73
2022-09-27T21:01:51.375Z,5.00
2022-09-27T21:04:19.003Z,3.60
2022-09-27T21:06:45.978Z,3.37
2022-09-27T21:09:18.472Z,2.70
2022-09-27T21:11:46.688Z,3.97
2022-09-27T21:14:13.179Z,2.53
2022-09-27T21:16:39.695Z,4.57
2022-09-27T21:19:06.256Z,3.20
2022-09-27T21:21:33.504Z,3.37
2022-09-27T21:24:01.923Z,3.33
2022-09-27T21:26:33.416Z,5.00
2022-09-27T21:29:01.878Z,4.33
2022-09-27T21:31:32.302Z,2.47
2022-09-27T21:34:01.297Z,3.57
2022-09-27T21:36:33.176Z,2.73
2022-09-27T21:38:59.897Z,2.50
2022-09-27T21:41:27.406Z,2.30
2022-09-27T21:43:54.088Z,2.70
2022-09-27T21:46:26.510Z,2.63
2022-09-27T21:48:55.951Z,5.63
2022-09-27T21:51:27.481Z,2.27
2022-09-27T21:54:00.638Z,5.20
2022-09-27T21:56:33.379Z,3.27
2022-09-27T21:59:00.004Z,3.33
2022-09-27T22:01:29.631Z,4.37
2022-09-27T22:03:57.381Z,3.03
2022-09-27T22:06:29.590Z,2.23
2022-09-27T22:08:56.902Z,2.50
2022-09-27T22:11:25.765Z,4.53
2022-09-27T22:13:52.295Z,2.97
2022-09-27T22:16:20.228Z,4.17
2022-09-27T22:18:48.939Z,2.50
2022-09-27T22:21:19.879Z,1.80
2022-09-27T22:23:46.581Z,2.40
2022-09-27T22:26:17.313Z,1.80
2022-09-27T22:28:45.117Z,3.47
2022-09-27T22:31:14.882Z,1.87
2022-09-27T22:33:42.823Z,5.00
2022-09-27T22:36:09.210Z,4.37
2022-09-27T22:38:35.696Z,3.87
2022-09-27T22:41:03.227Z,1.80
2022-09-27T22:43:30.474Z,2.07
2022-09-27T22:45:57.588Z,2.47
2022-09-27T22:48:24.086Z,3.00
2022-09-27T22:50:50.493Z,2.40
2022-09-27T22:53:17.064Z,3.93
2022-09-27T22:55:43.434Z,1.97
2022-09-27T22:58:09.893Z,2.90
2022-09-27T23:00:38.018Z,2.40
2022-09-27T23:03:04.572Z,3.57
2022-09-27T23:05:30.920Z,2.33
2022-09-27T23:07:57.392Z,2.50
2022-09-27T23:10:23.782Z,2.13
2022-09-27T23:12:58.153Z,3.33
2022-09-27T23:15:24.704Z,4.60
2022-09-27T23:17:51.558Z,5.13
2022-09-27T23:20:18.658Z,2.10
2022-09-27T23:22:45.446Z,4.60
2022-09-27T23:25:12.592Z,3.50
2022-09-27T23:27:42.038Z,3.00
2022-09-27T23:30:09.909Z,2.83
2022-09-27T23:32:36.539Z,4.23
2022-09-27T23:35:03.816Z,1.93
2022-09-27T23:37:30.847Z,3.10
2022-09-27T23:39:57.331Z,2.17
2022-09-27T23:42:23.877Z,3.03
2022-09-27T23:44:52.572Z,5.00
2022-09-27T23:47:19.009Z,2.80
2022-09-27T23:49:45.463Z,3.13
2022-09-27T23:52:13.530Z,2.93
2022-09-27T23:54:40.652Z,3.13
2022-09-27T23:57:07.582Z,2.57
2022-09-27T23:59:34.028Z,1.87
